createdAt,value
2023-05-06T00:01:08.519Z,6.82
2023-05-06T00:04:18.353Z,4.82
2023-05-06T00:07:23.332Z,8.75
2023-05-06T00:10:29.063Z,4.60
2023-05-06T00:13:34.046Z,5.22
2023-05-06T00:16:40.937Z,5.30
2023-05-06T00:19:52.593Z,6.05
2023-05-06T00:22:58.374Z,6.03
2023-05-06T00:26:05.858Z,4.88
2023-05-06T00:29:13.489Z,6.25
2023-05-06T00:32:18.568Z,5.70
2023-05-06T00:35:28.131Z,6.07
2023-05-06T00:38:33.404Z,3.88
2023-05-06T00:41:40.588Z,6.85
2023-05-06T00:44:45.589Z,4.45
2023-05-06T00:47:51.720Z,4.18
2023-05-06T00:50:59.658Z,6.13
2023-05-06T00:54:05.185Z,7.72
2023-05-06T00:57:10.751Z,6.28
2023-05-06T01:00:16.440Z,4.97
2023-05-06T01:03:25.386Z,6.45
2023-05-06T01:06:38.991Z,6.80
2023-05-06T01:09:46.031Z,6.15
2023-05-06T01:12:54.030Z,5.22
2023-05-06T01:16:00.563Z,6.22
2023-05-06T01:19:09.004Z,7.95
2023-05-06T01:22:18.013Z,5.32
2023-05-06T01:25:26.690Z,5.68
2023-05-06T01:28:34.066Z,6.45
2023-05-06T01:31:41.700Z,9.73
2023-05-06T01:34:50.967Z,9.52
2023-05-06T01:37:59.249Z,10.18
2023-05-06T01:41:07.408Z,6.53
2023-05-06T01:44:15.508Z,8.13
2023-05-06T01:47:20.814Z,8.38
2023-05-06T01:50:26.465Z,8.23
2023-05-06T01:53:35.070Z,6.60
2023-05-06T01:56:43.073Z,7.15
2023-05-06T01:59:48.138Z,6.70
2023-05-06T02:02:54.073Z,6.55
2023-05-06T02:05:59.198Z,5.15
2023-05-06T02:09:04.573Z,5.22
2023-05-06T02:12:12.621Z,5.45
2023-05-06T02:15:20.589Z,4.43
2023-05-06T02:18:28.900Z,5.50
2023-05-06T02:21:34.538Z,6.13
2023-05-06T02:24:39.689Z,5.25
2023-05-06T02:27:51.620Z,5.30
2023-05-06T02:31:00.920Z,8.23
2023-05-06T02:34:07.041Z,5.55
2023-05-06T02:37:14.599Z,5.00
2023-05-06T02:40:21.411Z,5.18
2023-05-06T02:43:29.201Z,4.63
2023-05-06T02:46:35.959Z,4.85
2023-05-06T02:49:40.970Z,4.95
2023-05-06T02:52:46.776Z,7.28
2023-05-06T02:55:51.856Z,6.63
2023-05-06T02:58:59.825Z,5.47
2023-05-06T03:02:05.211Z,4.32
2023-05-06T03:05:11.396Z,5.97
2023-05-06T03:08:19.072Z,3.83
2023-05-06T03:11:24.473Z,3.92
2023-05-06T03:14:32.656Z,3.65
2023-05-06T03:17:38.775Z,3.97
2023-05-06T03:20:43.915Z,4.90
2023-05-06T03:23:49.303Z,6.28
2023-05-06T03:26:58.774Z,4.28
2023-05-06T03:30:06.972Z,3.90
2023-05-06T03:33:13.821Z,3.90
2023-05-06T03:36:19.253Z,5.22
2023-05-06T03:39:24.245Z,5.35
2023-05-06T03:42:30.160Z,4.18
2023-05-06T03:45:38.174Z,4.07
2023-05-06T03:48:43.811Z,4.15
2023-05-06T03:51:48.817Z,3.45
2023-05-06T03:54:55.542Z,4.72
2023-05-06T03:58:00.664Z,4.55
2023-05-06T04:01:08.795Z,3.85
2023-05-06T04:04:14.123Z,6.00
2023-05-06T04:07:19.531Z,5.60
2023-05-06T04:10:24.572Z,5.63
2023-05-06T04:13:29.946Z,4.68
2023-05-06T04:16:37.613Z,5.25
2023-05-06T04:19:45.769Z,3.63
2023-05-06T04:22:51.369Z,4.38
2023-05-06T04:25:58.496Z,5.13
2023-05-06T04:29:03.521Z,3.40
2023-05-06T04:32:11.975Z,4.25
2023-05-06T04:35:17.384Z,4.20
2023-05-06T04:38:25.950Z,3.22
2023-05-06T04:41:31.934Z,4.95
2023-05-06T04:44:38.389Z,3.72
2023-05-06T04:47:46.169Z,3.67
2023-05-06T04:50:51.671Z,5.18
2023-05-06T04:53:56.794Z,4.57
2023-05-06T04:57:03.504Z,4.07
2023-05-06T05:00:10.795Z,4.53
2023-05-06T05:03:19.316Z,5.22
2023-05-06T05:06:26.430Z,3.97
2023-05-06T05:09:32.079Z,6.22
2023-05-06T05:12:37.357Z,7.35
2023-05-06T05:15:43.270Z,4.15
2023-05-06T05:18:51.775Z,4.70
2023-05-06T05:22:00.558Z,6.03
2023-05-06T05:25:14.546Z,5.05
2023-05-06T05:28:24.786Z,6.28
2023-05-06T05:31:31.597Z,4.53
2023-05-06T05:34:39.491Z,5.38
2023-05-06T05:37:45.532Z,3.50
2023-05-06T05:40:50.643Z,5.80
2023-05-06T05:43:58.283Z,5.65
2023-05-06T05:47:03.571Z,3.55
2023-05-06T05:50:12.557Z,4.07
2023-05-06T05:53:17.546Z,4.60
2023-05-06T05:56:24.940Z,4.70
2023-05-06T05:59:30.302Z,5.13
2023-05-06T06:02:36.237Z,5.07
2023-05-06T06:05:44.087Z,4.90
2023-05-06T06:08:49.594Z,4.32
2023-05-06T06:11:59.348Z,5.15
2023-05-06T06:15:07.770Z,4.55
2023-05-06T06:18:15.814Z,4.72
2023-05-06T06:21:26.620Z,5.15
2023-05-06T06:24:35.004Z,4.30
2023-05-06T06:27:40.577Z,4.72
2023-05-06T06:30:47.736Z,5.05
2023-05-06T06:33:56.086Z,5.82
2023-05-06T06:37:07.851Z,4.15
2023-05-06T06:40:18.674Z,2.83
2023-05-06T06:43:27.995Z,7.40
2023-05-06T06:46:34.343Z,4.28
2023-05-06T06:49:40.558Z,6.88
2023-05-06T06:52:51.394Z,6.72
2023-05-06T06:55:58.666Z,5.28
2023-05-06T06:59:04.388Z,5.03
2023-05-06T07:02:13.002Z,5.07
2023-05-06T07:05:19.711Z,6.18
2023-05-06T07:08:27.786Z,4.38
2023-05-06T07:11:33.925Z,3.28
2023-05-06T07:14:40.851Z,6.15
2023-05-06T07:17:47.540Z,7.18
2023-05-06T07:20:52.701Z,4.35
2023-05-06T07:24:01.352Z,3.90
2023-05-06T07:27:08.906Z,6.35
2023-05-06T07:30:14.694Z,4.35
2023-05-06T07:33:23.682Z,4.35
2023-05-06T07:36:37.316Z,6.30
2023-05-06T07:39:46.978Z,5.85
2023-05-06T07:42:52.554Z,6.45
2023-05-06T07:46:03.092Z,7.95
2023-05-06T07:49:08.885Z,4.05
2023-05-06T07:52:13.999Z,5.03
2023-05-06T07:55:22.618Z,4.70
2023-05-06T07:58:32.939Z,7.00
2023-05-06T08:05:11.230Z,5.82
2023-05-06T08:08:16.892Z,4.93
2023-05-06T08:11:24.571Z,5.13
2023-05-06T08:14:33.073Z,3.53
2023-05-06T08:17:39.653Z,4.55
2023-05-06T08:20:46.741Z,5.30
2023-05-06T08:23:53.301Z,4.50
2023-05-06T08:27:13.412Z,4.75
2023-05-06T08:30:18.999Z,4.95
2023-05-06T08:33:24.564Z,5.95
2023-05-06T08:36:29.994Z,4.32
2023-05-06T08:39:35.529Z,5.72
2023-05-06T08:42:46.203Z,3.60
2023-05-06T08:45:59.751Z,6.65
2023-05-06T08:49:13.828Z,5.50
2023-05-06T08:52:21.707Z,4.18
2023-05-06T08:55:29.727Z,5.07
2023-05-06T08:58:39.969Z,3.85
2023-05-06T09:01:45.343Z,4.97
2023-05-06T09:04:51.973Z,3.50
2023-05-06T09:07:57.259Z,4.80
2023-05-06T09:11:05.444Z,5.30
2023-05-06T09:14:18.397Z,4.38
2023-05-06T09:17:28.554Z,5.53
2023-05-06T09:20:37.140Z,7.20
2023-05-06T09:23:42.737Z,5.22
2023-05-06T09:26:49.584Z,3.95
2023-05-06T09:30:12.323Z,5.07
2023-05-06T09:33:19.661Z,3.63
2023-05-06T09:36:26.041Z,3.85
2023-05-06T09:39:31.153Z,5.38
2023-05-06T09:42:37.598Z,3.72
2023-05-06T09:45:53.413Z,5.25
2023-05-06T09:49:04.039Z,4.78
2023-05-06T09:52:10.290Z,7.63
2023-05-06T09:55:17.537Z,4.60
2023-05-06T09:58:23.971Z,3.70
2023-05-06T10:01:37.341Z,5.05
2023-05-06T10:04:44.186Z,3.65
2023-05-06T10:07:51.272Z,5.60
2023-05-06T10:10:57.315Z,4.55
2023-05-06T10:14:03.737Z,6.32
2023-05-06T10:17:18.485Z,3.38
2023-05-06T10:20:24.720Z,7.32
2023-05-06T10:23:33.191Z,5.85
2023-05-06T10:26:44.582Z,6.13
2023-05-06T10:29:54.166Z,4.60
2023-05-06T10:33:07.509Z,6.07
2023-05-06T10:36:17.169Z,5.97
2023-05-06T10:39:24.364Z,4.80
2023-05-06T10:42:33.124Z,6.25
2023-05-06T10:46:01.688Z,5.65
2023-05-06T10:49:21.747Z,6.45
2023-05-06T10:52:27.669Z,4.57
2023-05-06T10:55:33.792Z,5.47
2023-05-06T10:58:40.369Z,4.70
2023-05-06T11:01:46.700Z,5.05
2023-05-06T11:05:04.082Z,4.43
2023-05-06T11:08:15.281Z,3.83
2023-05-06T11:11:37.956Z,5.22
2023-05-06T11:14:50.807Z,5.20
2023-05-06T11:17:58.932Z,6.97
2023-05-06T11:21:23.952Z,7.13
2023-05-06T11:24:34.617Z,4.93
2023-05-06T11:27:41.342Z,6.78
2023-05-06T11:30:59.285Z,4.63
2023-05-06T11:34:10.261Z,4.00
2023-05-06T11:37:17.843Z,6.30
2023-05-06T11:40:26.555Z,4.70
2023-05-06T11:43:32.721Z,4.90
2023-05-06T11:46:41.610Z,4.93
2023-05-06T11:49:52.861Z,6.65
2023-05-06T11:53:01.466Z,6.45
2023-05-06T11:56:13.270Z,3.15
2023-05-06T11:59:19.142Z,4.15
2023-05-06T12:02:34.703Z,5.65
2023-05-06T12:05:43.810Z,4.22
2023-05-06T12:08:52.109Z,3.78
2023-05-06T12:12:05.002Z,3.53
2023-05-06T12:15:17.325Z,4.95
2023-05-06T12:18:38.302Z,6.03
2023-05-06T12:22:01.685Z,3.85
2023-05-06T12:29:07.236Z,4.90
2023-05-06T12:32:16.671Z,4.20
2023-05-06T12:35:31.531Z,5.22
2023-05-06T12:38:39.581Z,5.25
2023-05-06T12:41:50.125Z,5.60
2023-05-06T12:44:57.112Z,7.90
2023-05-06T12:48:08.065Z,4.78
2023-05-06T12:51:22.778Z,4.88
2023-05-06T12:54:36.430Z,4.07
2023-05-06T12:57:45.056Z,5.25
2023-05-06T13:00:52.794Z,4.03
2023-05-06T13:04:01.482Z,5.97
2023-05-06T13:07:08.978Z,5.93
2023-05-06T13:10:15.151Z,4.03
2023-05-06T13:13:21.665Z,5.32
2023-05-06T13:16:28.386Z,6.25
2023-05-06T13:19:42.596Z,4.65
2023-05-06T13:22:54.917Z,4.30
2023-05-06T13:26:06.247Z,4.85
2023-05-06T13:29:14.382Z,4.35
2023-05-06T13:32:23.104Z,6.35
2023-05-06T13:35:34.663Z,6.35
2023-05-06T13:38:42.298Z,3.35
2023-05-06T13:41:50.418Z,4.50
2023-05-06T13:44:59.172Z,5.20
2023-05-06T13:48:06.708Z,4.20
2023-05-06T13:51:22.842Z,6.53
2023-05-06T13:54:35.849Z,5.55
2023-05-06T13:57:42.619Z,4.65
2023-05-06T14:00:49.992Z,6.72
2023-05-06T14:04:09.827Z,5.00
2023-05-06T14:07:18.965Z,6.00
2023-05-06T14:10:29.651Z,9.70
2023-05-06T14:13:39.493Z,7.32
2023-05-06T14:16:48.434Z,8.75
2023-05-06T14:19:54.283Z,6.68
2023-05-06T14:23:04.499Z,6.30
2023-05-06T14:26:21.071Z,7.22
2023-05-06T14:29:29.652Z,7.45
2023-05-06T14:32:37.770Z,6.30
2023-05-06T14:35:51.246Z,5.28
2023-05-06T14:39:01.013Z,7.30
2023-05-06T14:42:10.926Z,7.60
2023-05-06T14:45:22.476Z,5.53
2023-05-06T14:48:38.928Z,5.88
2023-05-06T14:51:48.143Z,5.00
2023-05-06T14:54:57.378Z,8.07
2023-05-06T14:58:14.588Z,7.70
2023-05-06T15:01:26.188Z,5.63
2023-05-06T15:04:35.566Z,14.73
2023-05-06T15:07:42.103Z,8.98
2023-05-06T15:10:52.858Z,6.78
2023-05-06T15:14:02.539Z,6.18
2023-05-06T15:17:13.833Z,6.32
2023-05-06T15:20:21.846Z,9.73
2023-05-06T15:23:28.538Z,11.15
2023-05-06T15:26:37.781Z,6.63
2023-05-06T15:29:43.719Z,9.43
2023-05-06T15:32:53.740Z,5.97
2023-05-06T15:35:59.572Z,6.22
2023-05-06T15:39:11.360Z,6.43
2023-05-06T15:42:22.510Z,6.67
2023-05-06T15:45:29.119Z,9.68
2023-05-06T15:48:35.141Z,8.60
2023-05-06T15:51:43.814Z,7.40
2023-05-06T15:54:50.320Z,8.63
2023-05-06T15:58:03.985Z,9.00
2023-05-06T16:01:11.641Z,10.98
2023-05-06T16:04:19.992Z,8.15
2023-05-06T16:07:30.161Z,11.02
2023-05-06T16:10:37.046Z,9.52
2023-05-06T16:13:48.239Z,7.50
2023-05-06T16:16:55.960Z,7.18
2023-05-06T16:20:08.698Z,13.43
2023-05-06T16:23:17.522Z,6.32
2023-05-06T16:26:31.371Z,9.20
2023-05-06T16:29:40.247Z,8.68
2023-05-06T16:32:45.880Z,8.13
2023-05-06T16:35:56.102Z,6.63
2023-05-06T16:39:02.266Z,9.10
2023-05-06T16:42:16.433Z,4.97
2023-05-06T16:48:33.298Z,8.48
2023-05-06T16:51:38.906Z,9.73
2023-05-06T16:54:44.335Z,9.85
2023-05-06T16:57:49.537Z,6.80
2023-05-06T17:00:56.196Z,10.10
2023-05-06T17:04:09.434Z,8.60
2023-05-06T17:07:15.818Z,9.15
2023-05-06T17:10:23.453Z,11.75
2023-05-06T17:13:35.953Z,11.93
2023-05-06T17:16:43.894Z,11.32
2023-05-06T17:19:57.940Z,10.68
2023-05-06T17:23:03.844Z,7.88
2023-05-06T17:26:10.621Z,8.00
2023-05-06T17:29:16.118Z,8.82
2023-05-06T17:32:24.062Z,8.60
2023-05-06T17:35:32.752Z,11.60
2023-05-06T17:38:41.323Z,7.27
2023-05-06T17:41:50.535Z,6.35
2023-05-06T17:44:59.478Z,8.80
2023-05-06T17:48:04.712Z,10.15
2023-05-06T17:51:13.445Z,8.43
2023-05-06T17:54:19.170Z,6.72
2023-05-06T17:57:24.892Z,7.35
2023-05-06T18:00:30.626Z,7.45
2023-05-06T18:03:46.005Z,8.98
2023-05-06T18:06:54.167Z,6.07
2023-05-06T18:09:59.614Z,12.73
2023-05-06T18:13:04.711Z,8.35
2023-05-06T18:16:12.478Z,9.82
2023-05-06T18:19:17.608Z,7.55
2023-05-06T18:22:26.003Z,9.73
2023-05-06T18:25:31.591Z,12.02
2023-05-06T18:28:39.413Z,8.63
2023-05-06T18:31:44.813Z,10.15
2023-05-06T18:34:50.551Z,8.38
2023-05-06T18:38:00.557Z,9.00
2023-05-06T18:41:07.391Z,14.65
2023-05-06T18:44:12.399Z,9.10
2023-05-06T18:47:18.109Z,8.18
2023-05-06T18:50:26.033Z,9.43
2023-05-06T18:53:36.087Z,8.00
2023-05-06T18:56:43.901Z,7.00
2023-05-06T18:59:49.468Z,13.43
2023-05-06T19:02:54.701Z,8.60
2023-05-06T19:06:04.496Z,10.05
2023-05-06T19:09:14.683Z,7.32
2023-05-06T19:12:26.216Z,11.00
2023-05-06T19:15:35.604Z,13.93
2023-05-06T19:18:45.208Z,10.98
2023-05-06T19:22:00.054Z,15.82
2023-05-06T19:25:10.088Z,9.90
2023-05-06T19:28:15.483Z,10.63
2023-05-06T19:31:27.134Z,7.65
2023-05-06T19:34:32.154Z,11.70
2023-05-06T19:37:39.603Z,12.38
2023-05-06T19:40:57.630Z,8.70
2023-05-06T19:44:17.064Z,9.63
2023-05-06T19:47:22.274Z,13.00
2023-05-06T19:50:27.677Z,6.53
2023-05-06T19:53:35.650Z,8.60
2023-05-06T19:56:56.257Z,8.05
2023-05-06T20:00:06.365Z,10.98
2023-05-06T20:03:12.762Z,10.13
2023-05-06T20:06:27.510Z,8.68
2023-05-06T20:09:33.388Z,10.63
2023-05-06T20:12:41.635Z,12.05
2023-05-06T20:15:54.236Z,6.97
2023-05-06T20:19:03.820Z,9.20
2023-05-06T20:22:09.615Z,9.00
2023-05-06T20:25:25.248Z,16.17
2023-05-06T20:28:35.242Z,11.95
2023-05-06T20:31:42.376Z,10.55
2023-05-06T20:34:51.276Z,8.52
2023-05-06T20:37:57.685Z,6.90
2023-05-06T20:41:04.086Z,9.32
2023-05-06T20:44:23.819Z,6.43
2023-05-06T20:47:30.508Z,10.25
2023-05-06T20:50:37.848Z,7.35
2023-05-06T20:53:46.582Z,8.98
2023-05-06T20:56:52.192Z,10.15
2023-05-06T21:00:00.353Z,8.10
2023-05-06T21:03:07.039Z,11.55
2023-05-06T21:06:16.840Z,13.35
2023-05-06T21:09:23.085Z,5.97
2023-05-06T21:12:28.558Z,7.57
2023-05-06T21:15:37.944Z,6.53
2023-05-06T21:18:43.673Z,7.35
2023-05-06T21:21:50.176Z,8.40
2023-05-06T21:24:56.175Z,6.90
2023-05-06T21:28:05.664Z,8.48
2023-05-06T21:31:13.831Z,7.35
2023-05-06T21:34:20.144Z,8.07
2023-05-06T21:37:26.156Z,7.95
2023-05-06T21:40:32.672Z,12.48
2023-05-06T21:43:41.721Z,9.20
2023-05-06T21:46:53.098Z,9.27
2023-05-06T21:53:05.210Z,10.43
2023-05-06T21:56:12.852Z,7.55
2023-05-06T21:59:20.274Z,9.90
2023-05-06T22:02:33.183Z,13.48
2023-05-06T22:05:39.364Z,7.20
2023-05-06T22:08:45.211Z,6.38
2023-05-06T22:11:51.673Z,9.85
2023-05-06T22:15:04.549Z,5.85
2023-05-06T22:18:14.539Z,8.80
2023-05-06T22:21:24.814Z,7.27
2023-05-06T22:24:30.636Z,9.30
2023-05-06T22:27:38.230Z,9.77
2023-05-06T22:30:44.993Z,9.23
2023-05-06T22:33:58.331Z,9.85
2023-05-06T22:37:03.461Z,9.55
2023-05-06T22:40:11.894Z,9.68
2023-05-06T22:43:19.041Z,6.43
2023-05-06T22:46:24.457Z,5.75
2023-05-06T22:49:36.885Z,7.78
2023-05-06T22:52:49.634Z,10.40
2023-05-06T22:55:57.981Z,7.32
2023-05-06T22:59:19.714Z,8.02
2023-05-06T23:02:25.799Z,6.45
2023-05-06T23:05:33.832Z,6.05
2023-05-06T23:08:39.685Z,9.02
2023-05-06T23:11:51.452Z,7.95
2023-05-06T23:14:57.929Z,7.88
2023-05-06T23:18:04.685Z,6.53
2023-05-06T23:21:15.051Z,7.40
2023-05-06T23:24:21.159Z,6.82
2023-05-06T23:27:41.143Z,7.88
2023-05-06T23:30:47.001Z,7.20
2023-05-06T23:33:52.158Z,5.80
2023-05-06T23:37:04.817Z,8.95
2023-05-06T23:40:13.019Z,8.80
2023-05-06T23:43:26.256Z,8.30
2023-05-06T23:46:37.438Z,7.53
2023-05-06T23:49:44.014Z,11.38
2023-05-06T23:52:58.646Z,8.18
2023-05-06T23:56:04.088Z,8.35
2023-05-06T23:59:09.500Z,6.95
